Rayford, Texas
Current Conditions -  °F | °C
As of 12:53 PM on Tuesday 27 Jan 2015 (Local Time) from KIAH Reporting Station
Clear Clear  
Wind Chill: 74°   Ceiling: Unl
Heat Index: 74°   Visibility: 10mi
Dew Point: 43°   Wind: 3mph
Humidity: 33%   Direction: 320°NW
Pressure: 30.13"   Gusts: NA
Location:  30.0613°N, 95.3841°W
Report Text: KIAH 271853Z 32003KT 10SM CLR 23/06 A3013 RMK AO2 SLP202 T02330061
Loading
Personal Weather Stations






























Interactive Weather Map New forecast layout! Learn more

10-Day Weather Forecast

Advertisements
Track Severe Weather on mobile